sensor_id;sensor_type;location;lat;lon;timestamp;P1;durP1;ratioP1;P2;durP2;ratioP2
74957;SDS011;63741;42.624;26.276;2023-10-31T00:02:09;10.77;;;3.00;;
74957;SDS011;63741;42.624;26.276;2023-10-31T00:04:36;6.72;;;3.10;;
74957;SDS011;63741;42.624;26.276;2023-10-31T00:07:04;7.10;;;3.22;;
74957;SDS011;63741;42.624;26.276;2023-10-31T00:09:31;7.72;;;3.38;;
74957;SDS011;63741;42.624;26.276;2023-10-31T00:11:58;6.45;;;2.92;;
74957;SDS011;63741;42.624;26.276;2023-10-31T00:14:25;8.15;;;3.38;;
74957;SDS011;63741;42.624;26.276;2023-10-31T00:16:59;7.60;;;3.67;;
74957;SDS011;63741;42.624;26.276;2023-10-31T00:19:27;9.63;;;3.42;;
74957;SDS011;63741;42.624;26.276;2023-10-31T00:21:54;11.55;;;3.20;;
74957;SDS011;63741;42.624;26.276;2023-10-31T00:24:20;75.72;;;5.70;;
74957;SDS011;63741;42.624;26.276;2023-10-31T00:26:47;28.77;;;4.07;;
74957;SDS011;63741;42.624;26.276;2023-10-31T00:29:14;8.20;;;3.40;;
74957;SDS011;63741;42.624;26.276;2023-10-31T00:31:41;8.60;;;3.00;;
74957;SDS011;63741;42.624;26.276;2023-10-31T00:34:08;7.65;;;3.03;;
74957;SDS011;63741;42.624;26.276;2023-10-31T00:36:36;8.55;;;3.05;;
74957;SDS011;63741;42.624;26.276;2023-10-31T00:39:04;7.55;;;3.10;;
74957;SDS011;63741;42.624;26.276;2023-10-31T00:41:31;9.23;;;2.90;;
74957;SDS011;63741;42.624;26.276;2023-10-31T00:43:58;6.07;;;2.60;;
74957;SDS011;63741;42.624;26.276;2023-10-31T00:46:25;8.00;;;2.75;;
74957;SDS011;63741;42.624;26.276;2023-10-31T00:48:52;5.43;;;2.35;;
74957;SDS011;63741;42.624;26.276;2023-10-31T00:51:19;6.55;;;2.60;;
74957;SDS011;63741;42.624;26.276;2023-10-31T00:53:46;4.70;;;2.53;;
74957;SDS011;63741;42.624;26.276;2023-10-31T00:56:13;4.88;;;2.28;;
74957;SDS011;63741;42.624;26.276;2023-10-31T00:58:40;6.30;;;2.70;;
74957;SDS011;63741;42.624;26.276;2023-10-31T01:01:07;5.72;;;2.22;;
74957;SDS011;63741;42.624;26.276;2023-10-31T01:03:34;5.13;;;2.25;;
74957;SDS011;63741;42.624;26.276;2023-10-31T01:06:01;4.35;;;2.72;;
74957;SDS011;63741;42.624;26.276;2023-10-31T01:08:28;6.07;;;2.42;;
74957;SDS011;63741;42.624;26.276;2023-10-31T01:10:56;4.82;;;2.72;;
74957;SDS011;63741;42.624;26.276;2023-10-31T01:13:23;6.18;;;2.55;;
74957;SDS011;63741;42.624;26.276;2023-10-31T01:15:50;6.80;;;2.28;;
74957;SDS011;63741;42.624;26.276;2023-10-31T01:18:17;6.78;;;2.78;;
74957;SDS011;63741;42.624;26.276;2023-10-31T01:20:44;5.88;;;2.58;;
74957;SDS011;63741;42.624;26.276;2023-10-31T01:23:11;5.72;;;2.70;;
74957;SDS011;63741;42.624;26.276;2023-10-31T01:25:38;6.60;;;2.53;;
74957;SDS011;63741;42.624;26.276;2023-10-31T01:28:05;5.60;;;2.67;;
74957;SDS011;63741;42.624;26.276;2023-10-31T01:30:32;6.38;;;2.60;;
74957;SDS011;63741;42.624;26.276;2023-10-31T01:32:59;7.28;;;2.83;;
74957;SDS011;63741;42.624;26.276;2023-10-31T01:35:26;6.38;;;2.70;;
74957;SDS011;63741;42.624;26.276;2023-10-31T01:37:53;5.03;;;2.55;;
74957;SDS011;63741;42.624;26.276;2023-10-31T01:40:20;5.53;;;2.70;;
74957;SDS011;63741;42.624;26.276;2023-10-31T01:42:48;8.82;;;2.60;;
74957;SDS011;63741;42.624;26.276;2023-10-31T01:45:15;7.05;;;2.83;;
74957;SDS011;63741;42.624;26.276;2023-10-31T01:47:42;8.43;;;3.65;;
74957;SDS011;63741;42.624;26.276;2023-10-31T01:52:41;6.63;;;3.38;;
74957;SDS011;63741;42.624;26.276;2023-10-31T01:55:08;6.60;;;2.80;;
74957;SDS011;63741;42.624;26.276;2023-10-31T01:57:36;6.68;;;2.80;;
74957;SDS011;63741;42.624;26.276;2023-10-31T02:00:04;6.43;;;2.60;;
74957;SDS011;63741;42.624;26.276;2023-10-31T02:02:37;4.75;;;2.70;;
74957;SDS011;63741;42.624;26.276;2023-10-31T02:05:07;7.38;;;2.70;;
74957;SDS011;63741;42.624;26.276;2023-10-31T02:07:34;8.73;;;3.30;;
74957;SDS011;63741;42.624;26.276;2023-10-31T02:10:01;6.40;;;3.10;;
74957;SDS011;63741;42.624;26.276;2023-10-31T02:12:34;6.32;;;2.92;;
74957;SDS011;63741;42.624;26.276;2023-10-31T02:15:02;6.45;;;3.22;;
74957;SDS011;63741;42.624;26.276;2023-10-31T02:17:29;7.47;;;3.10;;
74957;SDS011;63741;42.624;26.276;2023-10-31T02:19:57;8.20;;;3.15;;
74957;SDS011;63741;42.624;26.276;2023-10-31T02:22:24;7.82;;;3.22;;
74957;SDS011;63741;42.624;26.276;2023-10-31T02:24:51;7.10;;;2.90;;
74957;SDS011;63741;42.624;26.276;2023-10-31T02:27:18;8.02;;;3.20;;
74957;SDS011;63741;42.624;26.276;2023-10-31T02:29:45;6.97;;;2.97;;
74957;SDS011;63741;42.624;26.276;2023-10-31T02:32:12;7.43;;;2.80;;
74957;SDS011;63741;42.624;26.276;2023-10-31T02:34:39;8.98;;;3.30;;
74957;SDS011;63741;42.624;26.276;2023-10-31T02:37:07;6.70;;;2.75;;
74957;SDS011;63741;42.624;26.276;2023-10-31T02:39:34;7.45;;;2.80;;
74957;SDS011;63741;42.624;26.276;2023-10-31T02:42:01;8.30;;;2.78;;
74957;SDS011;63741;42.624;26.276;2023-10-31T02:44:28;7.28;;;2.85;;
74957;SDS011;63741;42.624;26.276;2023-10-31T02:46:55;7.22;;;2.60;;
74957;SDS011;63741;42.624;26.276;2023-10-31T02:49:22;7.25;;;3.05;;
74957;SDS011;63741;42.624;26.276;2023-10-31T02:51:49;5.40;;;2.88;;
74957;SDS011;63741;42.624;26.276;2023-10-31T02:54:16;6.00;;;2.85;;
74957;SDS011;63741;42.624;26.276;2023-10-31T02:56:43;7.38;;;2.80;;
74957;SDS011;63741;42.624;26.276;2023-10-31T02:59:10;7.40;;;2.90;;
74957;SDS011;63741;42.624;26.276;2023-10-31T03:01:37;7.40;;;2.75;;
74957;SDS011;63741;42.624;26.276;2023-10-31T03:04:04;11.07;;;2.92;;
74957;SDS011;63741;42.624;26.276;2023-10-31T03:06:32;13.77;;;3.72;;
74957;SDS011;63741;42.624;26.276;2023-10-31T03:08:59;7.80;;;2.95;;
74957;SDS011;63741;42.624;26.276;2023-10-31T03:11:26;5.35;;;2.58;;
74957;SDS011;63741;42.624;26.276;2023-10-31T03:13:55;9.48;;;3.15;;
74957;SDS011;63741;42.624;26.276;2023-10-31T03:16:23;20.70;;;3.72;;
74957;SDS011;63741;42.624;26.276;2023-10-31T03:18:51;8.80;;;3.40;;
74957;SDS011;63741;42.624;26.276;2023-10-31T03:21:18;6.22;;;3.30;;
74957;SDS011;63741;42.624;26.276;2023-10-31T03:23:48;7.78;;;3.50;;
74957;SDS011;63741;42.624;26.276;2023-10-31T03:26:16;7.38;;;3.70;;
74957;SDS011;63741;42.624;26.276;2023-10-31T03:28:43;10.50;;;3.25;;
74957;SDS011;63741;42.624;26.276;2023-10-31T03:31:12;7.80;;;3.55;;
74957;SDS011;63741;42.624;26.276;2023-10-31T03:33:39;8.38;;;3.47;;
74957;SDS011;63741;42.624;26.276;2023-10-31T03:36:07;8.25;;;3.30;;
74957;SDS011;63741;42.624;26.276;2023-10-31T03:38:35;10.98;;;3.78;;
74957;SDS011;63741;42.624;26.276;2023-10-31T03:41:02;12.38;;;4.05;;
74957;SDS011;63741;42.624;26.276;2023-10-31T03:43:30;13.00;;;3.45;;
74957;SDS011;63741;42.624;26.276;2023-10-31T03:45:57;6.18;;;3.50;;
74957;SDS011;63741;42.624;26.276;2023-10-31T03:48:24;6.55;;;3.60;;
74957;SDS011;63741;42.624;26.276;2023-10-31T03:50:51;9.25;;;3.50;;
74957;SDS011;63741;42.624;26.276;2023-10-31T03:53:18;7.25;;;3.53;;
74957;SDS011;63741;42.624;26.276;2023-10-31T03:55:45;6.43;;;3.38;;
74957;SDS011;63741;42.624;26.276;2023-10-31T03:58:12;11.77;;;3.42;;
74957;SDS011;63741;42.624;26.276;2023-10-31T04:00:39;9.00;;;3.97;;
74957;SDS011;63741;42.624;26.276;2023-10-31T04:03:08;9.00;;;3.58;;
74957;SDS011;63741;42.624;26.276;2023-10-31T04:05:35;6.65;;;3.25;;
74957;SDS011;63741;42.624;26.276;2023-10-31T04:08:03;10.57;;;3.60;;
74957;SDS011;63741;42.624;26.276;2023-10-31T04:10:30;21.17;;;3.97;;
74957;SDS011;63741;42.624;26.276;2023-10-31T04:12:57;30.83;;;4.22;;
74957;SDS011;63741;42.624;26.276;2023-10-31T04:15:24;31.83;;;4.80;;
74957;SDS011;63741;42.624;26.276;2023-10-31T04:17:51;28.92;;;4.35;;
74957;SDS011;63741;42.624;26.276;2023-10-31T04:20:18;24.98;;;4.28;;
74957;SDS011;63741;42.624;26.276;2023-10-31T04:22:45;18.40;;;4.18;;
74957;SDS011;63741;42.624;26.276;2023-10-31T04:25:12;19.77;;;4.60;;
74957;SDS011;63741;42.624;26.276;2023-10-31T04:27:39;87.50;;;8.15;;
74957;SDS011;63741;42.624;26.276;2023-10-31T04:30:06;101.93;;;8.45;;
74957;SDS011;63741;42.624;26.276;2023-10-31T04:32:35;74.35;;;7.53;;
74957;SDS011;63741;42.624;26.276;2023-10-31T04:35:02;38.72;;;5.47;;
74957;SDS011;63741;42.624;26.276;2023-10-31T04:37:29;33.13;;;4.72;;
74957;SDS011;63741;42.624;26.276;2023-10-31T04:40:00;25.73;;;4.97;;
74957;SDS011;63741;42.624;26.276;2023-10-31T04:42:27;18.30;;;4.55;;
74957;SDS011;63741;42.624;26.276;2023-10-31T04:44:54;11.48;;;3.58;;
74957;SDS011;63741;42.624;26.276;2023-10-31T04:47:21;15.95;;;3.97;;
74957;SDS011;63741;42.624;26.276;2023-10-31T04:49:48;20.20;;;4.50;;
74957;SDS011;63741;42.624;26.276;2023-10-31T04:52:17;37.72;;;5.03;;
74957;SDS011;63741;42.624;26.276;2023-10-31T04:54:45;30.42;;;4.88;;
74957;SDS011;63741;42.624;26.276;2023-10-31T04:57:12;26.50;;;4.18;;
74957;SDS011;63741;42.624;26.276;2023-10-31T04:59:39;16.02;;;3.38;;
74957;SDS011;63741;42.624;26.276;2023-10-31T05:02:06;4.05;;;2.65;;
74957;SDS011;63741;42.624;26.276;2023-10-31T05:04:33;3.35;;;2.10;;
74957;SDS011;63741;42.624;26.276;2023-10-31T05:07:00;4.75;;;2.20;;
74957;SDS011;63741;42.624;26.276;2023-10-31T05:09:27;5.75;;;2.10;;
74957;SDS011;63741;42.624;26.276;2023-10-31T05:11:54;37.13;;;4.07;;
74957;SDS011;63741;42.624;26.276;2023-10-31T05:14:21;37.13;;;4.22;;
74957;SDS011;63741;42.624;26.276;2023-10-31T05:16:48;65.47;;;5.28;;
74957;SDS011;63741;42.624;26.276;2023-10-31T05:19:15;32.63;;;4.40;;
74957;SDS011;63741;42.624;26.276;2023-10-31T05:21:42;64.05;;;5.32;;
74957;SDS011;63741;42.624;26.276;2023-10-31T05:24:09;47.13;;;5.47;;
74957;SDS011;63741;42.624;26.276;2023-10-31T05:26:36;35.03;;;5.03;;
74957;SDS011;63741;42.624;26.276;2023-10-31T05:29:03;34.92;;;5.50;;
74957;SDS011;63741;42.624;26.276;2023-10-31T05:31:30;32.13;;;5.50;;
74957;SDS011;63741;42.624;26.276;2023-10-31T05:33:57;26.08;;;5.10;;
74957;SDS011;63741;42.624;26.276;2023-10-31T05:36:25;78.70;;;7.38;;
74957;SDS011;63741;42.624;26.276;2023-10-31T05:38:52;38.08;;;5.25;;
74957;SDS011;63741;42.624;26.276;2023-10-31T05:41:19;85.15;;;7.82;;
74957;SDS011;63741;42.624;26.276;2023-10-31T05:43:46;79.03;;;7.55;;
74957;SDS011;63741;42.624;26.276;2023-10-31T05:46:13;100.43;;;8.27;;
74957;SDS011;63741;42.624;26.276;2023-10-31T05:48:43;40.33;;;5.82;;
74957;SDS011;63741;42.624;26.276;2023-10-31T05:51:11;22.77;;;4.65;;
74957;SDS011;63741;42.624;26.276;2023-10-31T05:53:43;25.45;;;3.90;;
74957;SDS011;63741;42.624;26.276;2023-10-31T05:56:12;34.15;;;5.38;;
74957;SDS011;63741;42.624;26.276;2023-10-31T05:58:41;29.08;;;4.05;;
74957;SDS011;63741;42.624;26.276;2023-10-31T06:01:09;58.58;;;5.07;;
74957;SDS011;63741;42.624;26.276;2023-10-31T06:03:36;43.67;;;4.93;;
74957;SDS011;63741;42.624;26.276;2023-10-31T06:06:04;39.60;;;4.90;;
74957;SDS011;63741;42.624;26.276;2023-10-31T06:08:31;24.90;;;4.05;;
74957;SDS011;63741;42.624;26.276;2023-10-31T06:10:59;10.05;;;3.75;;
74957;SDS011;63741;42.624;26.276;2023-10-31T06:13:27;14.32;;;4.60;;
74957;SDS011;63741;42.624;26.276;2023-10-31T06:15:54;20.02;;;4.55;;
74957;SDS011;63741;42.624;26.276;2023-10-31T06:18:27;29.63;;;4.85;;
74957;SDS011;63741;42.624;26.276;2023-10-31T06:20:55;74.28;;;6.85;;
74957;SDS011;63741;42.624;26.276;2023-10-31T06:23:22;43.97;;;5.10;;
74957;SDS011;63741;42.624;26.276;2023-10-31T06:25:49;10.65;;;4.15;;
74957;SDS011;63741;42.624;26.276;2023-10-31T06:28:16;16.85;;;4.10;;
74957;SDS011;63741;42.624;26.276;2023-10-31T06:30:43;20.05;;;4.20;;
74957;SDS011;63741;42.624;26.276;2023-10-31T06:33:10;98.72;;;8.73;;
74957;SDS011;63741;42.624;26.276;2023-10-31T06:35:38;26.27;;;4.53;;
74957;SDS011;63741;42.624;26.276;2023-10-31T06:38:05;71.80;;;6.45;;
74957;SDS011;63741;42.624;26.276;2023-10-31T06:40:32;32.53;;;3.65;;
74957;SDS011;63741;42.624;26.276;2023-10-31T06:43:00;26.77;;;4.50;;
74957;SDS011;63741;42.624;26.276;2023-10-31T06:45:28;22.05;;;3.97;;
74957;SDS011;63741;42.624;26.276;2023-10-31T06:48:01;11.60;;;3.40;;
74957;SDS011;63741;42.624;26.276;2023-10-31T06:50:28;15.93;;;4.00;;
74957;SDS011;63741;42.624;26.276;2023-10-31T06:52:56;21.67;;;3.83;;
74957;SDS011;63741;42.624;26.276;2023-10-31T06:55:23;21.75;;;3.90;;
74957;SDS011;63741;42.624;26.276;2023-10-31T06:57:50;10.60;;;3.13;;
74957;SDS011;63741;42.624;26.276;2023-10-31T07:00:17;13.63;;;3.47;;
74957;SDS011;63741;42.624;26.276;2023-10-31T07:02:44;13.45;;;3.67;;
74957;SDS011;63741;42.624;26.276;2023-10-31T07:05:11;18.92;;;3.40;;
74957;SDS011;63741;42.624;26.276;2023-10-31T07:07:38;32.92;;;4.40;;
74957;SDS011;63741;42.624;26.276;2023-10-31T07:10:05;16.30;;;3.67;;
74957;SDS011;63741;42.624;26.276;2023-10-31T07:12:32;13.55;;;3.63;;
74957;SDS011;63741;42.624;26.276;2023-10-31T07:14:59;19.73;;;3.70;;
74957;SDS011;63741;42.624;26.276;2023-10-31T07:17:26;132.18;;;9.25;;
74957;SDS011;63741;42.624;26.276;2023-10-31T07:19:54;13.65;;;3.58;;
74957;SDS011;63741;42.624;26.276;2023-10-31T07:22:22;20.23;;;4.22;;
74957;SDS011;63741;42.624;26.276;2023-10-31T07:24:52;47.28;;;5.97;;
74957;SDS011;63741;42.624;26.276;2023-10-31T07:27:19;12.82;;;4.47;;
74957;SDS011;63741;42.624;26.276;2023-10-31T07:29:46;29.40;;;5.38;;
74957;SDS011;63741;42.624;26.276;2023-10-31T07:32:13;120.45;;;9.85;;
74957;SDS011;63741;42.624;26.276;2023-10-31T07:34:40;35.30;;;4.78;;
74957;SDS011;63741;42.624;26.276;2023-10-31T07:37:08;11.68;;;3.97;;
74957;SDS011;63741;42.624;26.276;2023-10-31T07:39:35;18.38;;;4.07;;
74957;SDS011;63741;42.624;26.276;2023-10-31T07:42:02;9.73;;;3.80;;
74957;SDS011;63741;42.624;26.276;2023-10-31T07:44:29;29.40;;;4.38;;
74957;SDS011;63741;42.624;26.276;2023-10-31T07:46:56;8.85;;;3.60;;
74957;SDS011;63741;42.624;26.276;2023-10-31T07:49:24;20.58;;;3.70;;
74957;SDS011;63741;42.624;26.276;2023-10-31T07:51:51;16.70;;;4.85;;
74957;SDS011;63741;42.624;26.276;2023-10-31T07:54:18;23.27;;;4.35;;
74957;SDS011;63741;42.624;26.276;2023-10-31T07:56:45;18.58;;;4.00;;
74957;SDS011;63741;42.624;26.276;2023-10-31T07:59:12;17.77;;;3.80;;
74957;SDS011;63741;42.624;26.276;2023-10-31T08:01:40;16.05;;;3.85;;
74957;SDS011;63741;42.624;26.276;2023-10-31T08:04:07;14.65;;;4.07;;
74957;SDS011;63741;42.624;26.276;2023-10-31T08:06:34;8.52;;;3.28;;
74957;SDS011;63741;42.624;26.276;2023-10-31T08:09:01;11.95;;;3.35;;
74957;SDS011;63741;42.624;26.276;2023-10-31T08:11:28;9.43;;;3.58;;
74957;SDS011;63741;42.624;26.276;2023-10-31T08:13:55;14.55;;;4.05;;
74957;SDS011;63741;42.624;26.276;2023-10-31T08:16:22;11.85;;;3.53;;
74957;SDS011;63741;42.624;26.276;2023-10-31T08:18:49;13.55;;;4.13;;
74957;SDS011;63741;42.624;26.276;2023-10-31T08:21:16;108.97;;;8.05;;
74957;SDS011;63741;42.624;26.276;2023-10-31T08:23:43;16.92;;;3.83;;
74957;SDS011;63741;42.624;26.276;2023-10-31T08:26:13;18.20;;;3.83;;
74957;SDS011;63741;42.624;26.276;2023-10-31T08:28:40;8.80;;;3.30;;
74957;SDS011;63741;42.624;26.276;2023-10-31T08:31:07;6.95;;;3.22;;
74957;SDS011;63741;42.624;26.276;2023-10-31T08:33:34;26.20;;;3.72;;
74957;SDS011;63741;42.624;26.276;2023-10-31T08:36:01;11.30;;;3.30;;
74957;SDS011;63741;42.624;26.276;2023-10-31T08:38:29;60.75;;;5.93;;
74957;SDS011;63741;42.624;26.276;2023-10-31T08:40:58;15.57;;;4.55;;
74957;SDS011;63741;42.624;26.276;2023-10-31T08:43:26;21.25;;;4.72;;
74957;SDS011;63741;42.624;26.276;2023-10-31T08:45:53;12.88;;;5.15;;
74957;SDS011;63741;42.624;26.276;2023-10-31T08:48:20;11.50;;;4.85;;
74957;SDS011;63741;42.624;26.276;2023-10-31T08:50:47;11.95;;;5.00;;
74957;SDS011;63741;42.624;26.276;2023-10-31T08:53:15;13.05;;;5.45;;
74957;SDS011;63741;42.624;26.276;2023-10-31T08:55:42;15.38;;;5.43;;
74957;SDS011;63741;42.624;26.276;2023-10-31T08:58:12;16.73;;;6.10;;
74957;SDS011;63741;42.624;26.276;2023-10-31T09:00:40;11.20;;;6.53;;
74957;SDS011;63741;42.624;26.276;2023-10-31T09:03:08;14.93;;;5.88;;
74957;SDS011;63741;42.624;26.276;2023-10-31T09:05:35;13.68;;;4.95;;
74957;SDS011;63741;42.624;26.276;2023-10-31T09:08:02;12.65;;;5.50;;
74957;SDS011;63741;42.624;26.276;2023-10-31T09:10:30;14.10;;;5.40;;
74957;SDS011;63741;42.624;26.276;2023-10-31T09:12:56;10.60;;;5.10;;
74957;SDS011;63741;42.624;26.276;2023-10-31T09:15:23;10.95;;;4.90;;
74957;SDS011;63741;42.624;26.276;2023-10-31T09:17:50;12.63;;;5.00;;
74957;SDS011;63741;42.624;26.276;2023-10-31T09:20:18;10.93;;;4.50;;
74957;SDS011;63741;42.624;26.276;2023-10-31T09:22:47;11.55;;;4.53;;
74957;SDS011;63741;42.624;26.276;2023-10-31T09:25:14;10.10;;;4.03;;
74957;SDS011;63741;42.624;26.276;2023-10-31T09:27:41;11.20;;;4.85;;
74957;SDS011;63741;42.624;26.276;2023-10-31T09:30:08;20.58;;;4.38;;
74957;SDS011;63741;42.624;26.276;2023-10-31T09:32:35;16.23;;;4.30;;
74957;SDS011;63741;42.624;26.276;2023-10-31T09:35:03;13.73;;;4.65;;
74957;SDS011;63741;42.624;26.276;2023-10-31T09:37:31;12.88;;;3.72;;
74957;SDS011;63741;42.624;26.276;2023-10-31T09:39:58;10.18;;;3.92;;
74957;SDS011;63741;42.624;26.276;2023-10-31T09:42:25;22.27;;;4.55;;
74957;SDS011;63741;42.624;26.276;2023-10-31T09:44:52;13.93;;;4.18;;
74957;SDS011;63741;42.624;26.276;2023-10-31T09:47:20;16.75;;;4.28;;
74957;SDS011;63741;42.624;26.276;2023-10-31T09:49:47;13.82;;;3.78;;
74957;SDS011;63741;42.624;26.276;2023-10-31T09:52:14;17.48;;;4.25;;
74957;SDS011;63741;42.624;26.276;2023-10-31T09:54:41;10.05;;;3.50;;
74957;SDS011;63741;42.624;26.276;2023-10-31T09:57:12;9.80;;;3.50;;
74957;SDS011;63741;42.624;26.276;2023-10-31T09:59:41;11.75;;;3.92;;
74957;SDS011;63741;42.624;26.276;2023-10-31T10:02:08;37.10;;;4.82;;
74957;SDS011;63741;42.624;26.276;2023-10-31T10:04:35;12.43;;;3.85;;
74957;SDS011;63741;42.624;26.276;2023-10-31T10:07:04;6.50;;;3.53;;
74957;SDS011;63741;42.624;26.276;2023-10-31T10:09:31;9.02;;;3.75;;
74957;SDS011;63741;42.624;26.276;2023-10-31T10:11:59;33.17;;;4.63;;
74957;SDS011;63741;42.624;26.276;2023-10-31T10:14:28;20.98;;;3.40;;
74957;SDS011;63741;42.624;26.276;2023-10-31T10:16:58;13.20;;;3.78;;
74957;SDS011;63741;42.624;26.276;2023-10-31T10:19:26;9.35;;;3.53;;
74957;SDS011;63741;42.624;26.276;2023-10-31T10:21:56;12.32;;;3.47;;
74957;SDS011;63741;42.624;26.276;2023-10-31T10:24:24;51.78;;;5.30;;
74957;SDS011;63741;42.624;26.276;2023-10-31T10:26:52;19.30;;;3.88;;
74957;SDS011;63741;42.624;26.276;2023-10-31T10:29:19;11.70;;;3.35;;
74957;SDS011;63741;42.624;26.276;2023-10-31T10:31:46;7.03;;;3.05;;
74957;SDS011;63741;42.624;26.276;2023-10-31T10:34:14;6.30;;;3.10;;
74957;SDS011;63741;42.624;26.276;2023-10-31T10:36:45;8.63;;;2.83;;
74957;SDS011;63741;42.624;26.276;2023-10-31T10:39:23;26.63;;;3.88;;
74957;SDS011;63741;42.624;26.276;2023-10-31T10:41:54;12.57;;;3.10;;
74957;SDS011;63741;42.624;26.276;2023-10-31T10:44:32;48.05;;;5.57;;
74957;SDS011;63741;42.624;26.276;2023-10-31T10:47:02;28.40;;;4.05;;
74957;SDS011;63741;42.624;26.276;2023-10-31T10:49:34;64.93;;;5.70;;
74957;SDS011;63741;42.624;26.276;2023-10-31T10:52:10;11.88;;;3.17;;
74957;SDS011;63741;42.624;26.276;2023-10-31T10:55:04;9.77;;;3.25;;
74957;SDS011;63741;42.624;26.276;2023-10-31T10:57:40;7.43;;;2.70;;
74957;SDS011;63741;42.624;26.276;2023-10-31T11:00:14;8.27;;;3.58;;
74957;SDS011;63741;42.624;26.276;2023-10-31T11:02:43;8.45;;;2.80;;
74957;SDS011;63741;42.624;26.276;2023-10-31T11:05:12;7.40;;;2.60;;
74957;SDS011;63741;42.624;26.276;2023-10-31T11:07:40;8.95;;;2.47;;
74957;SDS011;63741;42.624;26.276;2023-10-31T11:10:10;8.43;;;3.25;;
74957;SDS011;63741;42.624;26.276;2023-10-31T11:12:37;12.20;;;3.05;;
74957;SDS011;63741;42.624;26.276;2023-10-31T11:15:08;13.25;;;3.38;;
74957;SDS011;63741;42.624;26.276;2023-10-31T11:17:39;15.70;;;3.25;;
74957;SDS011;63741;42.624;26.276;2023-10-31T11:20:12;25.33;;;3.53;;
74957;SDS011;63741;42.624;26.276;2023-10-31T11:22:45;13.75;;;3.60;;
74957;SDS011;63741;42.624;26.276;2023-10-31T11:25:18;74.97;;;5.97;;
74957;SDS011;63741;42.624;26.276;2023-10-31T11:28:11;7.95;;;3.20;;
74957;SDS011;63741;42.624;26.276;2023-10-31T11:30:42;13.68;;;3.45;;
74957;SDS011;63741;42.624;26.276;2023-10-31T11:33:15;9.50;;;3.25;;
74957;SDS011;63741;42.624;26.276;2023-10-31T11:35:59;11.68;;;3.42;;
74957;SDS011;63741;42.624;26.276;2023-10-31T11:38:32;7.97;;;3.22;;
74957;SDS011;63741;42.624;26.276;2023-10-31T11:41:02;40.30;;;4.22;;
74957;SDS011;63741;42.624;26.276;2023-10-31T11:46:17;8.88;;;3.38;;
74957;SDS011;63741;42.624;26.276;2023-10-31T11:51:19;28.05;;;4.28;;
74957;SDS011;63741;42.624;26.276;2023-10-31T11:53:47;9.40;;;3.50;;
74957;SDS011;63741;42.624;26.276;2023-10-31T11:56:19;15.88;;;3.70;;
74957;SDS011;63741;42.624;26.276;2023-10-31T11:59:03;10.68;;;3.67;;
74957;SDS011;63741;42.624;26.276;2023-10-31T12:01:33;13.45;;;3.67;;
74957;SDS011;63741;42.624;26.276;2023-10-31T12:04:00;11.63;;;3.33;;
74957;SDS011;63741;42.624;26.276;2023-10-31T12:06:29;8.93;;;3.25;;
74957;SDS011;63741;42.624;26.276;2023-10-31T12:08:58;8.27;;;3.15;;
74957;SDS011;63741;42.624;26.276;2023-10-31T12:11:27;8.38;;;3.58;;
74957;SDS011;63741;42.624;26.276;2023-10-31T12:14:01;8.13;;;3.50;;
74957;SDS011;63741;42.624;26.276;2023-10-31T12:16:32;11.38;;;3.30;;
74957;SDS011;63741;42.624;26.276;2023-10-31T12:19:01;9.18;;;3.60;;
74957;SDS011;63741;42.624;26.276;2023-10-31T12:24:10;7.15;;;3.13;;
74957;SDS011;63741;42.624;26.276;2023-10-31T12:26:39;14.45;;;3.75;;
74957;SDS011;63741;42.624;26.276;2023-10-31T12:29:17;12.10;;;3.45;;
74957;SDS011;63741;42.624;26.276;2023-10-31T12:34:16;10.35;;;3.38;;
74957;SDS011;63741;42.624;26.276;2023-10-31T12:36:48;9.52;;;3.33;;
74957;SDS011;63741;42.624;26.276;2023-10-31T12:39:18;13.55;;;3.63;;
74957;SDS011;63741;42.624;26.276;2023-10-31T12:41:48;8.88;;;2.95;;
74957;SDS011;63741;42.624;26.276;2023-10-31T12:44:22;14.90;;;3.20;;
74957;SDS011;63741;42.624;26.276;2023-10-31T12:46:51;9.95;;;3.00;;
74957;SDS011;63741;42.624;26.276;2023-10-31T12:49:19;34.28;;;5.13;;
74957;SDS011;63741;42.624;26.276;2023-10-31T12:51:56;10.98;;;3.25;;
74957;SDS011;63741;42.624;26.276;2023-10-31T12:54:28;7.35;;;3.10;;
74957;SDS011;63741;42.624;26.276;2023-10-31T12:57:08;12.23;;;3.28;;
74957;SDS011;63741;42.624;26.276;2023-10-31T12:59:39;9.27;;;3.10;;
74957;SDS011;63741;42.624;26.276;2023-10-31T13:02:06;9.57;;;3.13;;
74957;SDS011;63741;42.624;26.276;2023-10-31T13:04:34;46.45;;;4.35;;
74957;SDS011;63741;42.624;26.276;2023-10-31T13:07:02;14.75;;;3.10;;
74957;SDS011;63741;42.624;26.276;2023-10-31T13:09:33;7.70;;;2.90;;
74957;SDS011;63741;42.624;26.276;2023-10-31T13:12:06;7.15;;;2.72;;
74957;SDS011;63741;42.624;26.276;2023-10-31T13:14:34;8.52;;;2.90;;
74957;SDS011;63741;42.624;26.276;2023-10-31T13:17:03;28.27;;;3.97;;
74957;SDS011;63741;42.624;26.276;2023-10-31T13:19:30;39.60;;;4.57;;
74957;SDS011;63741;42.624;26.276;2023-10-31T13:21:57;61.67;;;6.40;;
74957;SDS011;63741;42.624;26.276;2023-10-31T13:24:24;36.15;;;4.50;;
74957;SDS011;63741;42.624;26.276;2023-10-31T13:26:51;60.83;;;5.50;;
74957;SDS011;63741;42.624;26.276;2023-10-31T13:29:22;19.88;;;3.75;;
74957;SDS011;63741;42.624;26.276;2023-10-31T13:31:52;16.40;;;3.55;;
74957;SDS011;63741;42.624;26.276;2023-10-31T13:34:19;8.32;;;2.70;;
74957;SDS011;63741;42.624;26.276;2023-10-31T13:36:46;16.42;;;3.10;;
74957;SDS011;63741;42.624;26.276;2023-10-31T13:39:16;30.40;;;4.05;;
74957;SDS011;63741;42.624;26.276;2023-10-31T13:41:43;27.40;;;3.42;;
74957;SDS011;63741;42.624;26.276;2023-10-31T13:44:10;65.40;;;5.80;;
74957;SDS011;63741;42.624;26.276;2023-10-31T13:46:37;58.00;;;5.72;;
74957;SDS011;63741;42.624;26.276;2023-10-31T13:49:04;191.73;;;13.15;;
74957;SDS011;63741;42.624;26.276;2023-10-31T13:51:33;36.30;;;4.43;;
74957;SDS011;63741;42.624;26.276;2023-10-31T13:54:00;17.70;;;3.90;;
74957;SDS011;63741;42.624;26.276;2023-10-31T13:56:27;10.80;;;3.40;;
74957;SDS011;63741;42.624;26.276;2023-10-31T13:58:54;95.57;;;7.82;;
74957;SDS011;63741;42.624;26.276;2023-10-31T14:01:21;26.88;;;4.10;;
74957;SDS011;63741;42.624;26.276;2023-10-31T14:03:51;17.13;;;3.05;;
74957;SDS011;63741;42.624;26.276;2023-10-31T14:06:19;60.65;;;4.80;;
74957;SDS011;63741;42.624;26.276;2023-10-31T14:08:46;24.45;;;3.40;;
74957;SDS011;63741;42.624;26.276;2023-10-31T14:11:13;7.57;;;2.95;;
74957;SDS011;63741;42.624;26.276;2023-10-31T14:13:40;58.38;;;4.68;;
74957;SDS011;63741;42.624;26.276;2023-10-31T14:16:10;47.80;;;4.97;;
74957;SDS011;63741;42.624;26.276;2023-10-31T14:18:38;90.38;;;5.32;;
74957;SDS011;63741;42.624;26.276;2023-10-31T14:21:05;92.55;;;5.90;;
74957;SDS011;63741;42.624;26.276;2023-10-31T14:23:32;50.80;;;4.32;;
74957;SDS011;63741;42.624;26.276;2023-10-31T14:25:59;101.95;;;6.03;;
74957;SDS011;63741;42.624;26.276;2023-10-31T14:28:26;153.15;;;10.00;;
74957;SDS011;63741;42.624;26.276;2023-10-31T14:30:53;120.03;;;8.38;;
74957;SDS011;63741;42.624;26.276;2023-10-31T14:33:20;67.00;;;6.32;;
74957;SDS011;63741;42.624;26.276;2023-10-31T14:35:47;110.35;;;7.57;;
74957;SDS011;63741;42.624;26.276;2023-10-31T14:38:14;133.35;;;8.15;;
74957;SDS011;63741;42.624;26.276;2023-10-31T14:40:42;178.32;;;10.27;;
74957;SDS011;63741;42.624;26.276;2023-10-31T14:43:09;111.03;;;8.63;;
74957;SDS011;63741;42.624;26.276;2023-10-31T14:45:36;111.90;;;7.72;;